sensor_id;sensor_type;location;lat;lon;timestamp;P1;durP1;ratioP1;P2;durP2;ratioP2
24713;SDS011;12820;51.580;5.010;2023-08-20T00:00:02;8.77;;;2.30;;
24713;SDS011;12820;51.580;5.010;2023-08-20T00:05:13;9.23;;;2.28;;
24713;SDS011;12820;51.580;5.010;2023-08-20T00:10:16;14.10;;;2.63;;
24713;SDS011;12820;51.580;5.010;2023-08-20T00:15:19;10.77;;;2.60;;
24713;SDS011;12820;51.580;5.010;2023-08-20T00:20:24;11.70;;;2.40;;
24713;SDS011;12820;51.580;5.010;2023-08-20T00:25:27;10.80;;;2.30;;
24713;SDS011;12820;51.580;5.010;2023-08-20T00:30:29;13.23;;;2.92;;
24713;SDS011;12820;51.580;5.010;2023-08-20T00:35:31;11.20;;;2.88;;
24713;SDS011;12820;51.580;5.010;2023-08-20T00:40:34;9.30;;;2.08;;
24713;SDS011;12820;51.580;5.010;2023-08-20T00:45:36;11.82;;;2.50;;
24713;SDS011;12820;51.580;5.010;2023-08-20T00:50:39;12.70;;;2.70;;
24713;SDS011;12820;51.580;5.010;2023-08-20T00:55:42;14.80;;;3.20;;
24713;SDS011;12820;51.580;5.010;2023-08-20T01:00:48;12.43;;;2.80;;
24713;SDS011;12820;51.580;5.010;2023-08-20T01:05:50;8.85;;;2.65;;
24713;SDS011;12820;51.580;5.010;2023-08-20T01:11:05;10.63;;;2.75;;
24713;SDS011;12820;51.580;5.010;2023-08-20T01:16:18;9.40;;;2.80;;
24713;SDS011;12820;51.580;5.010;2023-08-20T01:21:25;10.40;;;2.90;;
24713;SDS011;12820;51.580;5.010;2023-08-20T01:26:49;13.85;;;3.40;;
24713;SDS011;12820;51.580;5.010;2023-08-20T01:31:56;7.93;;;3.00;;
24713;SDS011;12820;51.580;5.010;2023-08-20T01:36:59;12.85;;;3.20;;
24713;SDS011;12820;51.580;5.010;2023-08-20T01:42:01;10.95;;;3.70;;
24713;SDS011;12820;51.580;5.010;2023-08-20T01:47:03;12.02;;;3.70;;
24713;SDS011;12820;51.580;5.010;2023-08-20T01:52:06;11.57;;;3.50;;
24713;SDS011;12820;51.580;5.010;2023-08-20T01:57:08;13.57;;;3.45;;
24713;SDS011;12820;51.580;5.010;2023-08-20T02:02:10;12.05;;;3.10;;
24713;SDS011;12820;51.580;5.010;2023-08-20T02:07:12;12.25;;;4.05;;
24713;SDS011;12820;51.580;5.010;2023-08-20T02:12:14;12.07;;;4.30;;
24713;SDS011;12820;51.580;5.010;2023-08-20T02:17:17;12.82;;;4.35;;
24713;SDS011;12820;51.580;5.010;2023-08-20T02:22:19;12.32;;;5.07;;
24713;SDS011;12820;51.580;5.010;2023-08-20T02:27:22;10.55;;;3.70;;
24713;SDS011;12820;51.580;5.010;2023-08-20T02:32:26;13.23;;;3.33;;
24713;SDS011;12820;51.580;5.010;2023-08-20T02:37:28;13.35;;;3.40;;
24713;SDS011;12820;51.580;5.010;2023-08-20T02:42:31;10.93;;;3.30;;
24713;SDS011;12820;51.580;5.010;2023-08-20T02:47:35;11.18;;;3.30;;
24713;SDS011;12820;51.580;5.010;2023-08-20T02:52:38;12.43;;;2.65;;
24713;SDS011;12820;51.580;5.010;2023-08-20T02:57:40;9.75;;;3.60;;
24713;SDS011;12820;51.580;5.010;2023-08-20T03:02:42;7.63;;;3.50;;
24713;SDS011;12820;51.580;5.010;2023-08-20T03:07:44;10.88;;;3.83;;
24713;SDS011;12820;51.580;5.010;2023-08-20T03:12:47;9.32;;;4.22;;
24713;SDS011;12820;51.580;5.010;2023-08-20T03:17:49;11.07;;;4.30;;
24713;SDS011;12820;51.580;5.010;2023-08-20T03:22:51;14.77;;;4.40;;
24713;SDS011;12820;51.580;5.010;2023-08-20T03:27:54;11.32;;;4.10;;
24713;SDS011;12820;51.580;5.010;2023-08-20T03:32:57;10.25;;;4.43;;
24713;SDS011;12820;51.580;5.010;2023-08-20T03:38:00;11.45;;;4.20;;
24713;SDS011;12820;51.580;5.010;2023-08-20T03:43:03;13.02;;;5.15;;
24713;SDS011;12820;51.580;5.010;2023-08-20T03:48:05;12.32;;;4.45;;
24713;SDS011;12820;51.580;5.010;2023-08-20T03:53:07;15.55;;;5.68;;
24713;SDS011;12820;51.580;5.010;2023-08-20T03:58:10;12.18;;;5.20;;
24713;SDS011;12820;51.580;5.010;2023-08-20T04:03:12;14.02;;;5.40;;
24713;SDS011;12820;51.580;5.010;2023-08-20T04:08:14;16.08;;;5.53;;
24713;SDS011;12820;51.580;5.010;2023-08-20T04:13:16;13.77;;;5.03;;
24713;SDS011;12820;51.580;5.010;2023-08-20T04:18:18;17.50;;;5.15;;
24713;SDS011;12820;51.580;5.010;2023-08-20T04:23:22;17.88;;;6.20;;
24713;SDS011;12820;51.580;5.010;2023-08-20T04:28:24;14.43;;;5.28;;
24713;SDS011;12820;51.580;5.010;2023-08-20T04:33:26;14.73;;;5.35;;
24713;SDS011;12820;51.580;5.010;2023-08-20T04:38:29;14.80;;;5.40;;
24713;SDS011;12820;51.580;5.010;2023-08-20T04:43:34;14.25;;;5.55;;
24713;SDS011;12820;51.580;5.010;2023-08-20T04:48:37;17.38;;;5.55;;
24713;SDS011;12820;51.580;5.010;2023-08-20T04:53:40;12.43;;;5.65;;
24713;SDS011;12820;51.580;5.010;2023-08-20T04:58:45;14.60;;;5.65;;
24713;SDS011;12820;51.580;5.010;2023-08-20T05:03:55;15.77;;;6.03;;
24713;SDS011;12820;51.580;5.010;2023-08-20T05:08:58;14.02;;;6.18;;
24713;SDS011;12820;51.580;5.010;2023-08-20T05:14:00;19.25;;;6.72;;
24713;SDS011;12820;51.580;5.010;2023-08-20T05:19:03;16.15;;;6.82;;
24713;SDS011;12820;51.580;5.010;2023-08-20T05:24:06;15.20;;;6.65;;
24713;SDS011;12820;51.580;5.010;2023-08-20T05:29:09;19.15;;;6.72;;
24713;SDS011;12820;51.580;5.010;2023-08-20T05:34:11;21.15;;;6.82;;
24713;SDS011;12820;51.580;5.010;2023-08-20T05:39:13;15.50;;;6.53;;
24713;SDS011;12820;51.580;5.010;2023-08-20T05:44:16;15.68;;;6.80;;
24713;SDS011;12820;51.580;5.010;2023-08-20T05:49:18;16.10;;;6.70;;
24713;SDS011;12820;51.580;5.010;2023-08-20T05:54:21;16.33;;;7.10;;
24713;SDS011;12820;51.580;5.010;2023-08-20T05:59:27;19.92;;;7.15;;
24713;SDS011;12820;51.580;5.010;2023-08-20T06:04:30;15.38;;;7.18;;
24713;SDS011;12820;51.580;5.010;2023-08-20T06:09:32;13.27;;;6.70;;
24713;SDS011;12820;51.580;5.010;2023-08-20T06:14:34;18.92;;;7.40;;
24713;SDS011;12820;51.580;5.010;2023-08-20T06:19:38;14.20;;;6.38;;
24713;SDS011;12820;51.580;5.010;2023-08-20T06:24:40;18.30;;;6.53;;
24713;SDS011;12820;51.580;5.010;2023-08-20T06:29:43;15.18;;;5.80;;
24713;SDS011;12820;51.580;5.010;2023-08-20T06:34:45;14.07;;;5.55;;
24713;SDS011;12820;51.580;5.010;2023-08-20T06:39:47;13.75;;;5.18;;
24713;SDS011;12820;51.580;5.010;2023-08-20T06:44:50;14.07;;;4.80;;
24713;SDS011;12820;51.580;5.010;2023-08-20T06:49:52;11.40;;;3.45;;
24713;SDS011;12820;51.580;5.010;2023-08-20T06:54:55;14.45;;;3.63;;
24713;SDS011;12820;51.580;5.010;2023-08-20T06:59:57;13.80;;;3.30;;
24713;SDS011;12820;51.580;5.010;2023-08-20T07:04:59;9.50;;;3.17;;
24713;SDS011;12820;51.580;5.010;2023-08-20T07:10:02;8.95;;;2.78;;
24713;SDS011;12820;51.580;5.010;2023-08-20T07:15:05;12.23;;;3.42;;
24713;SDS011;12820;51.580;5.010;2023-08-20T07:20:08;11.40;;;2.63;;
24713;SDS011;12820;51.580;5.010;2023-08-20T07:25:11;12.20;;;3.30;;
24713;SDS011;12820;51.580;5.010;2023-08-20T07:30:13;9.00;;;2.97;;
24713;SDS011;12820;51.580;5.010;2023-08-20T07:35:15;13.73;;;4.32;;
24713;SDS011;12820;51.580;5.010;2023-08-20T07:40:18;11.93;;;3.70;;
24713;SDS011;12820;51.580;5.010;2023-08-20T07:45:20;14.02;;;3.47;;
24713;SDS011;12820;51.580;5.010;2023-08-20T07:50:22;12.88;;;2.78;;
24713;SDS011;12820;51.580;5.010;2023-08-20T07:55:24;11.70;;;2.88;;
24713;SDS011;12820;51.580;5.010;2023-08-20T08:00:27;7.15;;;2.10;;
24713;SDS011;12820;51.580;5.010;2023-08-20T08:05:29;13.27;;;2.47;;
24713;SDS011;12820;51.580;5.010;2023-08-20T08:10:31;10.45;;;2.60;;
24713;SDS011;12820;51.580;5.010;2023-08-20T08:15:33;14.65;;;2.80;;
24713;SDS011;12820;51.580;5.010;2023-08-20T08:20:36;8.57;;;2.13;;
24713;SDS011;12820;51.580;5.010;2023-08-20T08:25:38;12.93;;;5.55;;
24713;SDS011;12820;51.580;5.010;2023-08-20T08:30:41;10.45;;;2.65;;
24713;SDS011;12820;51.580;5.010;2023-08-20T08:35:44;9.30;;;2.05;;
24713;SDS011;12820;51.580;5.010;2023-08-20T08:40:46;7.95;;;1.52;;
24713;SDS011;12820;51.580;5.010;2023-08-20T08:45:50;10.27;;;1.80;;
24713;SDS011;12820;51.580;5.010;2023-08-20T08:50:52;6.78;;;1.67;;
24713;SDS011;12820;51.580;5.010;2023-08-20T08:55:55;7.65;;;1.95;;
24713;SDS011;12820;51.580;5.010;2023-08-20T09:00:57;6.25;;;1.40;;
24713;SDS011;12820;51.580;5.010;2023-08-20T09:06:00;7.68;;;1.58;;
24713;SDS011;12820;51.580;5.010;2023-08-20T09:11:05;6.40;;;1.25;;
24713;SDS011;12820;51.580;5.010;2023-08-20T09:16:11;7.65;;;1.33;;
24713;SDS011;12820;51.580;5.010;2023-08-20T09:21:14;6.68;;;1.10;;
24713;SDS011;12820;51.580;5.010;2023-08-20T09:26:16;9.15;;;1.55;;
24713;SDS011;12820;51.580;5.010;2023-08-20T09:31:19;5.68;;;0.90;;
24713;SDS011;12820;51.580;5.010;2023-08-20T09:36:33;5.25;;;0.98;;
24713;SDS011;12820;51.580;5.010;2023-08-20T09:41:37;10.60;;;6.72;;
24713;SDS011;12820;51.580;5.010;2023-08-20T09:46:40;7.15;;;1.35;;
24713;SDS011;12820;51.580;5.010;2023-08-20T09:51:45;7.57;;;1.40;;
24713;SDS011;12820;51.580;5.010;2023-08-20T09:56:51;4.47;;;1.02;;
24713;SDS011;12820;51.580;5.010;2023-08-20T10:01:58;7.35;;;0.90;;
24713;SDS011;12820;51.580;5.010;2023-08-20T10:07:01;7.15;;;0.90;;
24713;SDS011;12820;51.580;5.010;2023-08-20T10:12:05;5.72;;;0.88;;
24713;SDS011;12820;51.580;5.010;2023-08-20T10:17:08;19.25;;;11.90;;
24713;SDS011;12820;51.580;5.010;2023-08-20T10:22:11;5.60;;;1.45;;
24713;SDS011;12820;51.580;5.010;2023-08-20T10:27:23;3.83;;;1.10;;
24713;SDS011;12820;51.580;5.010;2023-08-20T10:38:00;6.07;;;1.00;;
24713;SDS011;12820;51.580;5.010;2023-08-20T10:43:05;2.53;;;0.70;;
24713;SDS011;12820;51.580;5.010;2023-08-20T10:48:07;5.07;;;0.80;;
24713;SDS011;12820;51.580;5.010;2023-08-20T10:53:11;6.15;;;0.70;;
24713;SDS011;12820;51.580;5.010;2023-08-20T10:58:13;12.40;;;5.50;;
24713;SDS011;12820;51.580;5.010;2023-08-20T11:03:16;4.53;;;1.00;;
24713;SDS011;12820;51.580;5.010;2023-08-20T11:08:19;7.40;;;1.15;;
24713;SDS011;12820;51.580;5.010;2023-08-20T11:13:24;3.17;;;0.75;;
24713;SDS011;12820;51.580;5.010;2023-08-20T11:18:27;5.03;;;0.90;;
24713;SDS011;12820;51.580;5.010;2023-08-20T11:23:29;4.63;;;0.80;;
24713;SDS011;12820;51.580;5.010;2023-08-20T11:28:32;3.63;;;0.73;;
24713;SDS011;12820;51.580;5.010;2023-08-20T11:33:35;4.38;;;1.30;;
24713;SDS011;12820;51.580;5.010;2023-08-20T11:38:37;5.38;;;0.98;;
24713;SDS011;12820;51.580;5.010;2023-08-20T11:43:40;4.90;;;0.80;;
24713;SDS011;12820;51.580;5.010;2023-08-20T11:54:16;3.55;;;0.70;;
24713;SDS011;12820;51.580;5.010;2023-08-20T11:59:19;4.03;;;0.75;;
24713;SDS011;12820;51.580;5.010;2023-08-20T12:04:26;4.88;;;1.50;;
24713;SDS011;12820;51.580;5.010;2023-08-20T12:09:29;5.85;;;1.50;;
24713;SDS011;12820;51.580;5.010;2023-08-20T12:14:32;4.63;;;0.90;;
24713;SDS011;12820;51.580;5.010;2023-08-20T12:19:34;7.75;;;1.00;;
24713;SDS011;12820;51.580;5.010;2023-08-20T12:24:36;5.70;;;0.70;;
24713;SDS011;12820;51.580;5.010;2023-08-20T12:29:40;6.65;;;1.50;;
24713;SDS011;12820;51.580;5.010;2023-08-20T12:34:42;5.50;;;0.90;;
24713;SDS011;12820;51.580;5.010;2023-08-20T12:39:46;5.53;;;0.93;;
24713;SDS011;12820;51.580;5.010;2023-08-20T12:44:48;4.30;;;0.77;;
24713;SDS011;12820;51.580;5.010;2023-08-20T12:49:50;6.65;;;1.00;;
24713;SDS011;12820;51.580;5.010;2023-08-20T12:54:52;3.15;;;0.68;;
24713;SDS011;12820;51.580;5.010;2023-08-20T12:59:55;4.07;;;0.90;;
24713;SDS011;12820;51.580;5.010;2023-08-20T13:04:57;4.53;;;0.90;;
24713;SDS011;12820;51.580;5.010;2023-08-20T13:10:00;6.47;;;0.80;;
24713;SDS011;12820;51.580;5.010;2023-08-20T13:15:03;4.78;;;0.90;;
24713;SDS011;12820;51.580;5.010;2023-08-20T13:20:06;5.30;;;1.10;;
24713;SDS011;12820;51.580;5.010;2023-08-20T13:25:10;5.93;;;1.02;;
24713;SDS011;12820;51.580;5.010;2023-08-20T13:30:12;5.00;;;0.90;;
24713;SDS011;12820;51.580;5.010;2023-08-20T13:35:15;5.05;;;0.80;;
24713;SDS011;12820;51.580;5.010;2023-08-20T13:40:17;6.35;;;0.82;;
24713;SDS011;12820;51.580;5.010;2023-08-20T13:45:19;5.60;;;1.05;;
24713;SDS011;12820;51.580;5.010;2023-08-20T13:50:22;7.07;;;1.15;;
24713;SDS011;12820;51.580;5.010;2023-08-20T13:55:24;4.65;;;0.70;;
24713;SDS011;12820;51.580;5.010;2023-08-20T14:00:26;6.97;;;1.00;;
24713;SDS011;12820;51.580;5.010;2023-08-20T14:05:28;4.75;;;0.93;;
24713;SDS011;12820;51.580;5.010;2023-08-20T14:10:31;4.90;;;1.08;;
24713;SDS011;12820;51.580;5.010;2023-08-20T14:15:33;7.10;;;1.02;;
24713;SDS011;12820;51.580;5.010;2023-08-20T14:20:36;3.50;;;0.80;;
24713;SDS011;12820;51.580;5.010;2023-08-20T14:25:38;4.78;;;1.10;;
24713;SDS011;12820;51.580;5.010;2023-08-20T14:30:42;6.45;;;0.88;;
24713;SDS011;12820;51.580;5.010;2023-08-20T14:35:44;6.38;;;1.20;;
24713;SDS011;12820;51.580;5.010;2023-08-20T14:40:46;7.75;;;1.40;;
24713;SDS011;12820;51.580;5.010;2023-08-20T14:45:49;6.93;;;1.17;;
24713;SDS011;12820;51.580;5.010;2023-08-20T14:50:51;4.72;;;0.82;;
24713;SDS011;12820;51.580;5.010;2023-08-20T14:55:53;4.00;;;0.88;;
24713;SDS011;12820;51.580;5.010;2023-08-20T15:00:56;5.97;;;0.95;;
24713;SDS011;12820;51.580;5.010;2023-08-20T15:05:58;20.60;;;12.00;;
24713;SDS011;12820;51.580;5.010;2023-08-20T15:11:00;39.10;;;34.85;;
24713;SDS011;12820;51.580;5.010;2023-08-20T15:16:06;32.38;;;28.88;;
24713;SDS011;12820;51.580;5.010;2023-08-20T15:21:08;8.27;;;4.28;;
24713;SDS011;12820;51.580;5.010;2023-08-20T15:26:13;7.40;;;1.92;;
24713;SDS011;12820;51.580;5.010;2023-08-20T15:31:15;9.43;;;2.80;;
24713;SDS011;12820;51.580;5.010;2023-08-20T15:36:18;5.35;;;1.67;;
24713;SDS011;12820;51.580;5.010;2023-08-20T15:41:20;6.20;;;1.83;;
24713;SDS011;12820;51.580;5.010;2023-08-20T15:46:23;9.02;;;1.63;;
24713;SDS011;12820;51.580;5.010;2023-08-20T15:51:25;7.57;;;1.20;;
24713;SDS011;12820;51.580;5.010;2023-08-20T15:56:27;10.65;;;4.00;;
24713;SDS011;12820;51.580;5.010;2023-08-20T16:01:30;6.20;;;1.10;;
24713;SDS011;12820;51.580;5.010;2023-08-20T16:06:32;6.38;;;1.60;;
24713;SDS011;12820;51.580;5.010;2023-08-20T16:11:35;10.77;;;3.97;;
24713;SDS011;12820;51.580;5.010;2023-08-20T16:16:37;5.30;;;1.35;;
24713;SDS011;12820;51.580;5.010;2023-08-20T16:21:39;10.45;;;2.40;;
24713;SDS011;12820;51.580;5.010;2023-08-20T16:26:42;8.77;;;1.00;;
24713;SDS011;12820;51.580;5.010;2023-08-20T16:31:44;7.07;;;2.58;;
24713;SDS011;12820;51.580;5.010;2023-08-20T16:36:46;7.30;;;2.15;;
24713;SDS011;12820;51.580;5.010;2023-08-20T16:41:49;8.50;;;2.85;;
24713;SDS011;12820;51.580;5.010;2023-08-20T16:46:51;9.50;;;2.85;;
24713;SDS011;12820;51.580;5.010;2023-08-20T16:51:53;8.07;;;1.85;;
24713;SDS011;12820;51.580;5.010;2023-08-20T16:56:56;7.72;;;2.33;;
24713;SDS011;12820;51.580;5.010;2023-08-20T17:01:58;8.20;;;2.55;;
24713;SDS011;12820;51.580;5.010;2023-08-20T17:07:00;14.70;;;4.80;;
24713;SDS011;12820;51.580;5.010;2023-08-20T17:12:03;89.80;;;9.10;;
24713;SDS011;12820;51.580;5.010;2023-08-20T17:17:05;5.65;;;1.58;;
24713;SDS011;12820;51.580;5.010;2023-08-20T17:22:08;8.80;;;2.35;;
24713;SDS011;12820;51.580;5.010;2023-08-20T17:27:10;6.97;;;1.50;;
24713;SDS011;12820;51.580;5.010;2023-08-20T17:32:12;10.93;;;2.00;;
24713;SDS011;12820;51.580;5.010;2023-08-20T17:37:14;11.48;;;1.77;;
24713;SDS011;12820;51.580;5.010;2023-08-20T17:42:16;6.30;;;1.20;;
24713;SDS011;12820;51.580;5.010;2023-08-20T17:47:18;8.40;;;1.52;;
24713;SDS011;12820;51.580;5.010;2023-08-20T17:52:21;7.43;;;1.50;;
24713;SDS011;12820;51.580;5.010;2023-08-20T17:57:25;7.88;;;1.70;;
24713;SDS011;12820;51.580;5.010;2023-08-20T18:02:28;13.15;;;4.45;;
24713;SDS011;12820;51.580;5.010;2023-08-20T18:07:30;6.45;;;1.60;;
24713;SDS011;12820;51.580;5.010;2023-08-20T18:12:33;6.95;;;1.65;;
24713;SDS011;12820;51.580;5.010;2023-08-20T18:17:36;8.68;;;2.00;;
24713;SDS011;12820;51.580;5.010;2023-08-20T18:22:38;6.45;;;1.60;;
24713;SDS011;12820;51.580;5.010;2023-08-20T18:27:42;7.50;;;1.30;;
24713;SDS011;12820;51.580;5.010;2023-08-20T18:32:44;12.10;;;2.15;;
24713;SDS011;12820;51.580;5.010;2023-08-20T18:37:47;8.75;;;2.38;;
24713;SDS011;12820;51.580;5.010;2023-08-20T18:42:49;9.55;;;1.38;;
24713;SDS011;12820;51.580;5.010;2023-08-20T18:47:51;8.80;;;1.63;;
24713;SDS011;12820;51.580;5.010;2023-08-20T18:52:54;7.15;;;1.50;;
24713;SDS011;12820;51.580;5.010;2023-08-20T18:57:56;7.05;;;1.38;;
24713;SDS011;12820;51.580;5.010;2023-08-20T19:02:58;7.32;;;1.40;;
24713;SDS011;12820;51.580;5.010;2023-08-20T19:08:00;10.27;;;1.90;;
24713;SDS011;12820;51.580;5.010;2023-08-20T19:13:03;9.32;;;1.48;;
24713;SDS011;12820;51.580;5.010;2023-08-20T19:18:05;21.45;;;11.50;;
24713;SDS011;12820;51.580;5.010;2023-08-20T19:23:07;8.55;;;4.75;;
24713;SDS011;12820;51.580;5.010;2023-08-20T19:28:10;8.18;;;2.30;;
24713;SDS011;12820;51.580;5.010;2023-08-20T19:33:13;8.15;;;1.75;;
24713;SDS011;12820;51.580;5.010;2023-08-20T19:38:15;8.52;;;1.80;;
24713;SDS011;12820;51.580;5.010;2023-08-20T19:43:21;12.75;;;1.85;;
24713;SDS011;12820;51.580;5.010;2023-08-20T19:48:24;9.90;;;1.75;;
24713;SDS011;12820;51.580;5.010;2023-08-20T19:53:26;4.82;;;1.33;;
24713;SDS011;12820;51.580;5.010;2023-08-20T19:58:28;7.90;;;1.50;;
24713;SDS011;12820;51.580;5.010;2023-08-20T20:03:30;10.80;;;1.90;;
24713;SDS011;12820;51.580;5.010;2023-08-20T20:08:33;13.77;;;2.40;;
24713;SDS011;12820;51.580;5.010;2023-08-20T20:13:35;8.68;;;1.60;;
24713;SDS011;12820;51.580;5.010;2023-08-20T20:18:38;7.45;;;1.95;;
24713;SDS011;12820;51.580;5.010;2023-08-20T20:23:40;9.00;;;2.15;;
24713;SDS011;12820;51.580;5.010;2023-08-20T20:28:42;7.75;;;1.27;;
24713;SDS011;12820;51.580;5.010;2023-08-20T20:33:45;7.80;;;1.40;;
24713;SDS011;12820;51.580;5.010;2023-08-20T20:38:47;7.30;;;1.35;;
24713;SDS011;12820;51.580;5.010;2023-08-20T20:43:49;8.05;;;1.48;;
24713;SDS011;12820;51.580;5.010;2023-08-20T20:48:52;6.28;;;1.35;;
24713;SDS011;12820;51.580;5.010;2023-08-20T20:53:54;9.63;;;3.15;;
24713;SDS011;12820;51.580;5.010;2023-08-20T20:58:56;9.02;;;1.40;;
24713;SDS011;12820;51.580;5.010;2023-08-20T21:03:59;7.03;;;1.27;;
24713;SDS011;12820;51.580;5.010;2023-08-20T21:09:01;5.57;;;1.40;;
24713;SDS011;12820;51.580;5.010;2023-08-20T21:14:03;9.05;;;1.77;;
24713;SDS011;12820;51.580;5.010;2023-08-20T21:19:05;6.47;;;1.40;;
24713;SDS011;12820;51.580;5.010;2023-08-20T21:24:08;5.60;;;1.33;;
24713;SDS011;12820;51.580;5.010;2023-08-20T21:29:10;8.00;;;1.40;;
24713;SDS011;12820;51.580;5.010;2023-08-20T21:34:12;10.13;;;1.75;;
24713;SDS011;12820;51.580;5.010;2023-08-20T21:39:14;8.15;;;1.60;;
24713;SDS011;12820;51.580;5.010;2023-08-20T21:44:17;10.35;;;1.75;;
24713;SDS011;12820;51.580;5.010;2023-08-20T21:49:19;6.28;;;1.40;;
24713;SDS011;12820;51.580;5.010;2023-08-20T21:54:25;4.80;;;1.23;;
24713;SDS011;12820;51.580;5.010;2023-08-20T21:59:27;7.53;;;2.00;;
24713;SDS011;12820;51.580;5.010;2023-08-20T22:04:32;7.18;;;1.35;;
24713;SDS011;12820;51.580;5.010;2023-08-20T22:09:35;6.80;;;1.75;;
24713;SDS011;12820;51.580;5.010;2023-08-20T22:14:37;7.25;;;1.73;;
24713;SDS011;12820;51.580;5.010;2023-08-20T22:19:40;10.07;;;1.60;;
24713;SDS011;12820;51.580;5.010;2023-08-20T22:24:42;8.32;;;1.60;;
24713;SDS011;12820;51.580;5.010;2023-08-20T22:29:44;7.47;;;1.70;;
24713;SDS011;12820;51.580;5.010;2023-08-20T22:34:48;9.90;;;1.48;;
24713;SDS011;12820;51.580;5.010;2023-08-20T22:39:51;9.80;;;1.63;;
24713;SDS011;12820;51.580;5.010;2023-08-20T22:44:54;7.50;;;1.90;;
24713;SDS011;12820;51.580;5.010;2023-08-20T22:49:56;7.53;;;1.55;;
24713;SDS011;12820;51.580;5.010;2023-08-20T22:54:58;7.82;;;1.63;;
24713;SDS011;12820;51.580;5.010;2023-08-20T23:00:00;8.00;;;1.80;;
24713;SDS011;12820;51.580;5.010;2023-08-20T23:05:02;8.13;;;1.58;;
24713;SDS011;12820;51.580;5.010;2023-08-20T23:10:06;11.55;;;1.90;;
24713;SDS011;12820;51.580;5.010;2023-08-20T23:15:09;8.77;;;1.63;;
24713;SDS011;12820;51.580;5.010;2023-08-20T23:20:12;5.47;;;1.33;;
24713;SDS011;12820;51.580;5.010;2023-08-20T23:25:15;6.68;;;1.67;;
24713;SDS011;12820;51.580;5.010;2023-08-20T23:30:17;12.50;;;2.00;;
24713;SDS011;12820;51.580;5.010;2023-08-20T23:35:20;9.52;;;1.90;;
24713;SDS011;12820;51.580;5.010;2023-08-20T23:40:22;7.95;;;1.60;;
24713;SDS011;12820;51.580;5.010;2023-08-20T23:45:25;9.60;;;1.80;;
24713;SDS011;12820;51.580;5.010;2023-08-20T23:50:27;8.85;;;1.73;;
24713;SDS011;12820;51.580;5.010;2023-08-20T23:55:29;12.18;;;1.95;;
